Anticosti - eastern half: Past 24 Hour Conditions

 

Natashquan Airport

11:00 AM EST 26 January 2015
Disclaimer

This table is a summary of hourly weather conditions for the past 24 hours.
Please note that these observations might not always be representative of weather conditions over their associated marine area.

Date / Time
(EST)
Wind(knots) Conditions Visibility(km) Pressure(kPa) Air tempC) Relative humidity(%) Dew pointC) Wind Chill
26 January 2015
11:00 WNW 14 gust 21 Sunny 16 101.2 -18 56 -24 -29
10:00 W 17 gust 23 Sunny 16 101.1 -19 57 -25 -31
9:00 WNW 13 gust 20 Sunny 16 101.0 -19 63 -24 -30
8:00 WNW 14 gust 25 Sunny 16 100.8 -19 67 -24 -31
7:00 WNW 18 gust 24 Sunny 16 100.6 -19 65 -24 -32
6:00 WNW 14 gust 24 Mostly Cloudy 16 100.4 -18 71 -22 -29
5:00 WNW 14 gust 22 Partly Cloudy 16 100.1 -17 76 -21 -28
4:00 WNW 13 gust 19 Mostly Cloudy 16 100.0 -17 68 -22 -27
3:00 NW 15 gust 23 Cloudy 16 99.8 -16 69 -21 -27
2:00 WNW 13 Cloudy 16 99.6 -15 72 -19 -25
1:00 NW 14 gust 20 Mostly Cloudy 16 99.4 -14 71 -18 -24
0:00 NW 19 gust 25 Light Snow 6 99.2 -12 73 -16 -22
25 January 2015
23:00 NNW 14 gust 23 Light Snow 4 98.9 -10 82 -13 -19
22:00 NNW 14 gust 19 Light Snow 4 98.7 -9 85 -11 -17
21:00 NNW 9 Light Snow 8 98.6 -7 87 -9 -14
20:00 NW 9 Light Snow 4 98.5 -7 92 -8 -13
19:00 NW 9 Light Snow 16 98.4 -6 87 -8 -12
18:00 NW 13 gust 20 Light Snow 4 98.3 -4 93 -5 -11
17:00 W 16 gust 23 Light Snow 4 98.2 -4 94 -4 -11
16:00 W 20 gust 28 Light Snow 2 98.1 -3 93 -4 -12
15:00 W 22 gust 31 Light Snow 3 97.9 -3 86 -5 -12
14:00 W 19 gust 27 Light Snow 10 97.7 -3 85 -5 -11
13:00 W 20 gust 27 Light Snow 16 97.5 -3 78 -6 -11
12:00 WNW 13 gust 22 Sunny 16 97.2 -4 74 -8 -10
11:00 WNW 20 gust 25 Mainly Sunny 16 97.0 -4 78 -7 -12
Map of Atlantic - Newfoundland marine weather areas Southwestern Grand Banks - 44138 Banquereau - 44139 Tail of the Bank - 44140 Nickerson Bank - 44251 Northeast Burgeo Bank - 44255 Blanc-Sablon Airport Cap Whittle Chevery Natashquan Airport Heath Point Miscou Island Grand Étang Ingonish Beach North Mountain St.Paul Island J.A. Douglas McCurdy Sydney Airport Charlottetown Airport East Point North Cape Argentia Bonavista Burgeo Cape Race Corner Brook Daniel's Harbour Englee Ferolle Point La Scie Port aux Basques Rocky Harbour Sagona Island St. Anthony Airport St. John's Int'l Airport St. Lawrence Stephenville Airport Twillingate Winterland Wreckhouse Cartwright Airport Mary's Harbour Grates Cove Pool's Island Marticot Island Long Pond Îles de la Madeleine Airport
Legend:
buoy Buoy
land station Land Station

Atlantic - Newfoundland Area

Another Region

What we are doing

Date modified: